createdAt,value
2019-05-05T00:01:07.343Z,6.28
2019-05-05T00:03:45.776Z,5.87
2019-05-05T00:06:16.379Z,6.08
2019-05-05T00:08:47.220Z,6.37
2019-05-05T00:11:28.442Z,6.30
2019-05-05T00:14:01.779Z,5.72
2019-05-05T00:16:36.528Z,5.58
2019-05-05T00:19:07.365Z,5.70
2019-05-05T00:21:37.980Z,5.90
2019-05-05T00:24:08.798Z,5.92
2019-05-05T00:26:39.260Z,6.12
2019-05-05T00:29:09.833Z,6.40
2019-05-05T00:31:40.894Z,6.20
2019-05-05T00:34:12.643Z,6.40
2019-05-05T00:36:44.597Z,6.58
2019-05-05T00:39:16.624Z,6.35
2019-05-05T00:41:48.693Z,6.33
2019-05-05T00:44:19.767Z,6.60
2019-05-05T00:46:57.959Z,6.62
2019-05-05T00:49:37.428Z,6.35
2019-05-05T00:52:05.055Z,6.50
2019-05-05T00:54:36.586Z,7.33
2019-05-05T00:57:27.459Z,6.20
2019-05-05T00:59:58.263Z,7.17
2019-05-05T01:02:30.336Z,6.95
2019-05-05T01:05:18.692Z,7.20
2019-05-05T01:07:49.387Z,7.47
2019-05-05T01:10:40.933Z,7.30
2019-05-05T01:13:11.976Z,6.95
2019-05-05T01:15:44.861Z,7.50
2019-05-05T01:18:17.908Z,7.20
2019-05-05T01:20:48.483Z,7.42
2019-05-05T01:23:19.043Z,7.85
2019-05-05T01:25:49.558Z,7.55
2019-05-05T01:28:20.368Z,8.13
2019-05-05T01:30:52.180Z,8.18
2019-05-05T01:33:28.927Z,8.10
2019-05-05T01:35:59.524Z,7.78
2019-05-05T01:38:44.702Z,8.75
2019-05-05T01:41:16.672Z,8.20
2019-05-05T01:43:47.219Z,8.50
2019-05-05T01:46:17.633Z,8.43
2019-05-05T01:48:48.052Z,8.28
2019-05-05T01:51:18.541Z,9.10
2019-05-05T01:53:49.348Z,8.90
2019-05-05T01:56:20.117Z,8.63
2019-05-05T01:58:51.098Z,8.53
2019-05-05T02:01:21.717Z,9.00
2019-05-05T02:03:52.266Z,9.30
2019-05-05T02:06:24.712Z,10.00
2019-05-05T02:08:54.966Z,9.63
2019-05-05T02:11:25.650Z,9.05
2019-05-05T02:13:56.245Z,8.83
2019-05-05T02:16:27.081Z,8.90
2019-05-05T02:18:58.104Z,9.80
2019-05-05T02:21:28.670Z,8.70
2019-05-05T02:23:59.097Z,9.48
2019-05-05T02:26:29.603Z,9.40
2019-05-05T02:29:14.236Z,9.40
2019-05-05T02:32:05.904Z,9.65
2019-05-05T02:34:35.981Z,10.13
2019-05-05T02:37:06.809Z,10.25
2019-05-05T02:39:42.182Z,9.88
2019-05-05T02:42:11.400Z,10.18
2019-05-05T02:44:45.225Z,9.95
2019-05-05T02:47:19.460Z,9.70
2019-05-05T02:49:50.465Z,10.05
2019-05-05T02:52:24.610Z,9.93
2019-05-05T02:54:56.342Z,10.08
2019-05-05T02:57:27.173Z,10.18
2019-05-05T03:00:02.018Z,10.68
2019-05-05T03:02:35.265Z,11.15
2019-05-05T03:05:06.450Z,10.70
2019-05-05T03:07:39.681Z,10.43
2019-05-05T03:10:10.639Z,10.72
2019-05-05T03:12:43.940Z,10.45
2019-05-05T03:15:19.939Z,9.90
2019-05-05T03:18:04.212Z,9.88
2019-05-05T03:20:35.279Z,11.33
2019-05-05T03:23:06.137Z,10.00
2019-05-05T03:25:36.709Z,11.35
2019-05-05T03:28:27.290Z,11.63
2019-05-05T03:30:58.324Z,11.03
2019-05-05T03:36:28.289Z,10.93
2019-05-05T03:39:01.165Z,11.65
2019-05-05T03:41:36.814Z,11.08
2019-05-05T03:46:54.342Z,11.28
2019-05-05T03:49:25.287Z,11.73
2019-05-05T03:51:56.332Z,11.28
2019-05-05T03:54:27.239Z,11.48
2019-05-05T03:59:47.173Z,11.03
2019-05-05T04:02:31.659Z,12.23
2019-05-05T04:05:04.064Z,11.18
2019-05-05T04:07:38.292Z,9.93
2019-05-05T04:13:04.688Z,13.30
2019-05-05T04:15:39.344Z,11.53
2019-05-05T04:18:20.239Z,13.10
2019-05-05T04:20:50.764Z,12.40
2019-05-05T04:23:21.688Z,11.85
2019-05-05T04:25:54.319Z,12.65
2019-05-05T04:28:24.193Z,12.93
2019-05-05T04:30:55.022Z,12.37
2019-05-05T04:33:25.749Z,13.13
2019-05-05T04:35:56.547Z,12.65
2019-05-05T04:38:27.282Z,12.37
2019-05-05T04:40:58.087Z,12.33
2019-05-05T04:43:37.718Z,12.18
2019-05-05T04:46:08.672Z,12.63
2019-05-05T04:48:44.093Z,12.65
2019-05-05T04:53:47.548Z,13.15
2019-05-05T04:56:18.458Z,13.15
2019-05-05T04:58:54.452Z,14.28
2019-05-05T05:01:25.357Z,15.25
2019-05-05T05:04:00.873Z,16.45
2019-05-05T05:11:54.712Z,13.88
2019-05-05T05:14:26.724Z,29.40
2019-05-05T05:16:58.831Z,21.07
2019-05-05T05:19:29.303Z,92.97
2019-05-05T05:22:02.150Z,91.72
2019-05-05T05:24:34.312Z,96.45
2019-05-05T05:27:18.386Z,38.33
2019-05-05T05:29:49.140Z,15.60
2019-05-05T05:32:19.880Z,27.27
2019-05-05T05:34:50.295Z,42.23
2019-05-05T05:37:21.052Z,21.25
2019-05-05T05:39:54.529Z,22.32
2019-05-05T05:42:25.500Z,16.55
2019-05-05T05:45:06.633Z,26.55
2019-05-05T05:47:55.519Z,28.20
2019-05-05T05:50:27.672Z,20.95
2019-05-05T05:52:58.435Z,22.25
2019-05-05T05:55:29.314Z,12.55
2019-05-05T05:57:59.984Z,11.70
2019-05-05T06:00:31.230Z,12.50
2019-05-05T06:03:03.732Z,11.60
2019-05-05T06:05:34.516Z,10.40
2019-05-05T06:08:05.266Z,11.95
2019-05-05T06:10:36.094Z,10.65
2019-05-05T06:13:06.741Z,11.00
2019-05-05T06:15:37.690Z,11.05
2019-05-05T06:18:08.483Z,11.60
2019-05-05T06:20:39.193Z,11.95
2019-05-05T06:23:09.923Z,12.30
2019-05-05T06:25:41.142Z,16.23
2019-05-05T06:28:11.828Z,14.55
2019-05-05T06:30:44.370Z,12.05
2019-05-05T06:33:17.015Z,10.58
2019-05-05T06:41:37.873Z,10.08
2019-05-05T06:44:10.163Z,9.45
2019-05-05T06:46:45.266Z,9.35
2019-05-05T06:49:15.773Z,9.58
2019-05-05T06:51:46.710Z,10.20
2019-05-05T06:54:17.270Z,9.75
2019-05-05T06:56:50.123Z,10.23
2019-05-05T06:59:19.870Z,9.45
2019-05-05T07:01:50.451Z,8.85
2019-05-05T07:04:21.140Z,8.95
2019-05-05T07:06:53.960Z,9.00
2019-05-05T07:09:26.223Z,9.23
2019-05-05T07:11:58.980Z,8.75
2019-05-05T07:14:29.862Z,7.97
2019-05-05T07:17:00.560Z,8.35
2019-05-05T07:19:31.209Z,8.53
2019-05-05T07:22:03.868Z,8.70
2019-05-05T07:24:34.404Z,8.55
2019-05-05T07:27:06.240Z,8.55
2019-05-05T07:29:37.254Z,8.58
2019-05-05T07:32:09.081Z,8.93
2019-05-05T07:34:54.627Z,8.93
2019-05-05T07:37:25.510Z,8.83
2019-05-05T07:39:56.890Z,8.08
2019-05-05T07:42:28.886Z,8.20
2019-05-05T07:44:59.828Z,8.83
2019-05-05T07:47:30.506Z,9.00
2019-05-05T07:50:01.194Z,9.48
2019-05-05T07:52:34.237Z,9.58
2019-05-05T07:55:04.345Z,9.18
2019-05-05T07:57:35.216Z,9.00
2019-05-05T08:00:08.964Z,9.00
2019-05-05T08:09:27.226Z,9.05
2019-05-05T08:12:00.249Z,9.75
2019-05-05T08:14:31.430Z,9.15
2019-05-05T08:17:38.859Z,9.68
2019-05-05T08:20:10.601Z,8.53
2019-05-05T08:22:41.536Z,9.40
2019-05-05T08:25:14.541Z,8.80
2019-05-05T08:28:05.113Z,9.08
2019-05-05T08:30:49.395Z,8.35
2019-05-05T08:33:19.956Z,8.40
2019-05-05T08:35:50.566Z,7.22
2019-05-05T08:38:24.246Z,8.30
2019-05-05T08:40:57.956Z,7.03
2019-05-05T08:43:28.474Z,7.10
2019-05-05T08:45:59.179Z,7.33
2019-05-05T08:48:29.677Z,6.58
2019-05-05T08:51:00.207Z,6.40
2019-05-05T08:53:42.500Z,7.08
2019-05-05T08:56:06.858Z,6.35
2019-05-05T08:58:37.712Z,6.47
2019-05-05T09:01:08.171Z,6.70
2019-05-05T09:03:38.954Z,7.45
2019-05-05T09:06:10.873Z,7.00
2019-05-05T09:08:41.545Z,6.92
2019-05-05T09:11:14.017Z,6.00
2019-05-05T09:13:44.744Z,6.62
2019-05-05T09:16:15.744Z,5.65
2019-05-05T09:18:59.750Z,6.22
2019-05-05T09:21:30.615Z,6.60
2019-05-05T09:24:05.320Z,6.10
2019-05-05T09:26:44.842Z,6.85
2019-05-05T09:29:27.250Z,6.97
2019-05-05T09:31:59.002Z,6.50
2019-05-05T09:34:30.540Z,6.50
2019-05-05T09:37:03.634Z,7.05
2019-05-05T09:39:40.697Z,7.05
2019-05-05T09:42:11.387Z,8.15
2019-05-05T09:44:43.843Z,7.33
2019-05-05T09:47:14.425Z,6.58
2019-05-05T09:49:45.081Z,6.55
2019-05-05T09:52:16.008Z,6.80
2019-05-05T09:54:46.702Z,6.90
2019-05-05T09:57:17.345Z,6.55
2019-05-05T09:59:49.627Z,6.67
2019-05-05T10:02:38.678Z,7.50
2019-05-05T10:05:10.119Z,7.12
2019-05-05T10:07:40.945Z,7.70
2019-05-05T10:10:13.682Z,6.78
2019-05-05T10:12:45.969Z,6.70
2019-05-05T10:15:17.430Z,6.72
2019-05-05T10:18:06.956Z,6.60
2019-05-05T10:20:37.756Z,6.60
2019-05-05T10:23:08.467Z,7.17
2019-05-05T10:25:40.474Z,6.95
2019-05-05T10:28:10.971Z,6.92
2019-05-05T10:30:43.026Z,7.10
2019-05-05T10:33:14.227Z,6.08
2019-05-05T10:35:44.966Z,6.78
2019-05-05T10:38:15.370Z,6.55
2019-05-05T10:40:48.229Z,6.60
2019-05-05T10:43:18.440Z,6.58
2019-05-05T10:45:48.943Z,6.42
2019-05-05T10:48:19.346Z,6.12
2019-05-05T10:50:49.835Z,6.10
2019-05-05T10:53:20.308Z,5.90
2019-05-05T10:55:51.454Z,6.17
2019-05-05T10:58:24.249Z,5.60
2019-05-05T11:00:56.403Z,6.30
2019-05-05T11:03:26.992Z,6.87
2019-05-05T11:05:59.905Z,6.17
2019-05-05T11:08:34.713Z,6.30
2019-05-05T11:11:04.523Z,6.50
2019-05-05T11:13:37.232Z,6.80
2019-05-05T11:16:07.743Z,6.45
2019-05-05T11:18:38.167Z,6.03
2019-05-05T11:21:08.759Z,6.83
2019-05-05T11:23:39.656Z,7.00
2019-05-05T11:26:10.733Z,6.75
2019-05-05T11:28:44.559Z,7.08
2019-05-05T11:31:15.918Z,7.17
2019-05-05T11:33:48.697Z,6.75
2019-05-05T11:36:24.656Z,6.62
2019-05-05T11:39:05.353Z,5.97
2019-05-05T11:44:45.879Z,6.20
2019-05-05T11:47:19.488Z,5.72
2019-05-05T11:50:09.390Z,6.20
2019-05-05T11:52:40.068Z,6.00
2019-05-05T11:55:12.248Z,6.20
2019-05-05T11:57:46.516Z,6.03
2019-05-05T12:00:18.760Z,6.17
2019-05-05T12:02:49.498Z,6.08
2019-05-05T12:05:21.965Z,6.45
2019-05-05T12:07:54.401Z,6.47
2019-05-05T12:10:29.632Z,6.45
2019-05-05T12:13:01.625Z,7.10
2019-05-05T12:15:34.196Z,6.33
2019-05-05T12:18:07.208Z,6.40
2019-05-05T12:20:39.820Z,5.53
2019-05-05T12:23:13.096Z,6.12
2019-05-05T12:25:56.655Z,5.90
2019-05-05T12:31:29.080Z,5.33
2019-05-05T12:34:00.471Z,5.37
2019-05-05T12:36:31.317Z,5.70
2019-05-05T12:39:03.838Z,5.67
2019-05-05T12:41:34.602Z,5.67
2019-05-05T12:44:06.691Z,5.78
2019-05-05T12:46:49.683Z,5.83
2019-05-05T12:49:17.471Z,4.97
2019-05-05T12:52:08.525Z,5.00
2019-05-05T12:54:40.003Z,4.55
2019-05-05T12:57:13.674Z,4.97
2019-05-05T12:59:53.676Z,4.45
2019-05-05T13:02:24.496Z,4.60
2019-05-05T13:04:55.443Z,4.72
2019-05-05T13:07:26.402Z,4.30
2019-05-05T13:09:57.728Z,4.53
2019-05-05T13:12:29.614Z,4.30
2019-05-05T13:15:00.631Z,4.30
2019-05-05T13:17:31.442Z,4.58
2019-05-05T13:20:24.586Z,4.50
2019-05-05T13:23:31.631Z,4.40
2019-05-05T13:26:14.373Z,4.70
2019-05-05T13:28:44.979Z,4.20
2019-05-05T13:31:15.841Z,4.83
2019-05-05T13:33:47.634Z,4.28
2019-05-05T13:36:21.474Z,4.97
2019-05-05T13:38:54.471Z,5.00
2019-05-05T13:41:24.859Z,4.28
2019-05-05T13:43:57.526Z,4.47
2019-05-05T13:46:33.804Z,4.37
2019-05-05T13:51:53.913Z,4.30
2019-05-05T13:54:24.834Z,4.00
2019-05-05T13:57:00.563Z,3.90
2019-05-05T14:02:01.205Z,4.70
2019-05-05T14:04:32.031Z,4.67
2019-05-05T14:07:04.009Z,4.10
2019-05-05T14:09:35.160Z,4.40
2019-05-05T14:12:06.511Z,4.53
2019-05-05T14:14:37.670Z,4.60
2019-05-05T14:17:08.943Z,4.53
2019-05-05T14:19:39.868Z,4.10
2019-05-05T14:22:10.865Z,4.25
2019-05-05T14:24:59.852Z,4.95
2019-05-05T14:27:28.024Z,4.60
2019-05-05T14:33:11.923Z,4.47
2019-05-05T14:35:50.538Z,4.87
2019-05-05T14:38:38.590Z,4.17
2019-05-05T14:41:13.607Z,4.22
2019-05-05T14:46:37.423Z,4.55
2019-05-05T14:49:13.731Z,4.55
2019-05-05T14:51:47.167Z,4.00
2019-05-05T14:54:19.851Z,4.00
2019-05-05T14:56:54.250Z,4.00
2019-05-05T14:59:26.395Z,4.12
2019-05-05T15:06:03.886Z,4.00
2019-05-05T15:08:38.933Z,3.90
2019-05-05T15:11:11.160Z,3.72
2019-05-05T15:13:43.705Z,3.47
2019-05-05T15:16:14.807Z,3.77
2019-05-05T15:18:45.577Z,3.90
2019-05-05T15:21:23.628Z,4.08
2019-05-05T15:23:55.637Z,4.30
2019-05-05T15:26:26.382Z,3.92
2019-05-05T15:29:01.604Z,3.77
2019-05-05T15:31:29.679Z,4.03
2019-05-05T15:34:00.459Z,4.30
2019-05-05T15:36:33.337Z,4.40
2019-05-05T15:39:04.516Z,3.75
2019-05-05T15:41:35.646Z,4.92
2019-05-05T15:46:59.678Z,5.22
2019-05-05T15:49:31.391Z,5.42
2019-05-05T15:52:04.188Z,6.22
2019-05-05T15:54:34.849Z,6.05
2019-05-05T15:57:09.002Z,6.05
2019-05-05T15:59:39.391Z,7.10
2019-05-05T16:02:10.136Z,9.58
2019-05-05T16:04:40.838Z,10.60
2019-05-05T16:07:13.667Z,10.65
2019-05-05T16:09:44.343Z,10.38
2019-05-05T16:12:16.084Z,10.35
2019-05-05T16:14:48.818Z,9.50
2019-05-05T16:17:24.204Z,10.08
2019-05-05T16:19:56.422Z,8.78
2019-05-05T16:22:34.514Z,9.13
2019-05-05T16:25:14.300Z,9.13
2019-05-05T16:27:45.264Z,9.50
2019-05-05T16:30:17.811Z,8.55
2019-05-05T16:32:48.622Z,8.60
2019-05-05T16:35:20.771Z,9.10
2019-05-05T16:37:52.829Z,7.65
2019-05-05T16:40:27.718Z,8.40
2019-05-05T16:42:58.458Z,7.28
2019-05-05T16:45:30.278Z,7.12
2019-05-05T16:48:01.048Z,6.35
2019-05-05T16:50:34.056Z,6.92
2019-05-05T16:53:06.431Z,6.35
2019-05-05T16:55:38.899Z,6.50
2019-05-05T16:58:28.730Z,7.42
2019-05-05T17:00:59.639Z,7.33
2019-05-05T17:03:30.277Z,7.97
2019-05-05T17:06:00.784Z,8.30
2019-05-05T17:08:31.261Z,7.90
2019-05-05T17:11:02.029Z,7.80
2019-05-05T17:13:51.369Z,8.68
2019-05-05T17:16:35.052Z,8.73
2019-05-05T17:19:22.309Z,8.70
2019-05-05T17:21:54.159Z,9.30
2019-05-05T17:24:24.997Z,9.48
2019-05-05T17:26:55.680Z,8.98
2019-05-05T17:29:27.845Z,9.30
2019-05-05T17:31:58.544Z,9.63
2019-05-05T17:34:29.203Z,10.13
2019-05-05T17:36:59.799Z,10.00
2019-05-05T17:39:31.759Z,10.13
2019-05-05T17:42:10.046Z,9.53
2019-05-05T17:47:47.751Z,10.15
2019-05-05T17:50:19.922Z,10.13
2019-05-05T17:53:07.639Z,9.93
2019-05-05T17:55:41.912Z,10.28
2019-05-05T17:58:13.720Z,10.05
2019-05-05T18:00:49.086Z,10.13
2019-05-05T18:03:19.879Z,10.20
2019-05-05T18:06:10.525Z,10.05
2019-05-05T18:08:58.799Z,10.85
2019-05-05T18:11:54.213Z,10.10
2019-05-05T18:14:29.027Z,10.32
2019-05-05T18:17:00.092Z,10.30
2019-05-05T18:19:30.771Z,10.03
2019-05-05T18:22:01.485Z,10.75
2019-05-05T18:24:33.668Z,10.45
2019-05-05T18:27:04.935Z,11.35
2019-05-05T18:29:35.728Z,9.90
2019-05-05T18:32:26.689Z,10.68
2019-05-05T18:34:57.416Z,10.25
2019-05-05T18:37:28.234Z,10.80
2019-05-05T18:39:59.131Z,10.32
2019-05-05T18:42:30.023Z,10.08
2019-05-05T18:45:03.746Z,10.53
2019-05-05T18:47:34.239Z,10.93
2019-05-05T18:50:05.903Z,11.12
2019-05-05T18:52:37.725Z,10.38
2019-05-05T18:55:10.135Z,10.90
2019-05-05T18:57:40.970Z,10.45
2019-05-05T19:00:13.914Z,10.23
2019-05-05T19:02:53.598Z,10.50
2019-05-05T19:05:43.920Z,10.98
2019-05-05T19:08:15.822Z,11.05
2019-05-05T19:10:46.712Z,10.50
2019-05-05T19:13:17.164Z,10.65
2019-05-05T19:15:47.810Z,11.10
2019-05-05T19:18:19.005Z,10.55
2019-05-05T19:21:11.821Z,10.63
2019-05-05T19:23:44.609Z,10.32
2019-05-05T19:26:14.962Z,9.93
2019-05-05T19:28:49.931Z,10.48
2019-05-05T19:31:18.503Z,9.88
2019-05-05T19:33:49.170Z,9.98
2019-05-05T19:36:19.900Z,10.00
2019-05-05T19:38:51.428Z,10.23
2019-05-05T19:41:23.786Z,10.35
2019-05-05T19:43:55.207Z,10.40
2019-05-05T19:46:44.660Z,10.15
2019-05-05T19:49:15.860Z,10.38
2019-05-05T19:51:47.145Z,10.53
2019-05-05T19:54:17.961Z,10.70
2019-05-05T19:56:48.872Z,11.33
2019-05-05T19:59:19.638Z,10.88
2019-05-05T20:01:50.363Z,11.65
2019-05-05T20:04:21.161Z,12.50
2019-05-05T20:06:51.917Z,12.03
2019-05-05T20:09:24.613Z,12.33
2019-05-05T20:11:54.840Z,12.95
2019-05-05T20:14:25.511Z,12.58
2019-05-05T20:17:00.875Z,12.90
2019-05-05T20:19:36.472Z,12.45
2019-05-05T20:24:36.734Z,12.13
2019-05-05T20:27:07.335Z,12.47
2019-05-05T20:29:37.891Z,12.82
2019-05-05T20:32:08.322Z,12.50
2019-05-05T20:34:46.626Z,13.53
2019-05-05T20:37:18.757Z,12.93
2019-05-05T20:39:49.183Z,13.60
2019-05-05T20:45:14.529Z,13.20
2019-05-05T20:47:46.155Z,12.95
2019-05-05T20:50:16.841Z,13.30
2019-05-05T20:52:47.685Z,13.88
2019-05-05T20:55:18.455Z,13.78
2019-05-05T20:57:49.214Z,13.32
2019-05-05T21:00:20.257Z,13.95
2019-05-05T21:02:50.832Z,12.82
2019-05-05T21:05:21.244Z,12.82
2019-05-05T21:07:51.661Z,12.60
2019-05-05T21:10:24.147Z,13.22
2019-05-05T21:12:54.791Z,13.98
2019-05-05T21:15:26.302Z,12.63
2019-05-05T21:17:57.027Z,13.43
2019-05-05T21:20:27.765Z,13.62
2019-05-05T21:23:03.692Z,12.95
2019-05-05T21:25:40.666Z,14.05
2019-05-05T21:28:11.568Z,13.60
2019-05-05T21:30:41.994Z,14.40
2019-05-05T21:33:12.576Z,13.22
2019-05-05T21:35:44.120Z,13.60
2019-05-05T21:38:14.689Z,14.38
2019-05-05T21:40:45.198Z,13.22
2019-05-05T21:43:15.670Z,13.48
2019-05-05T21:45:46.088Z,13.43
2019-05-05T21:48:17.084Z,13.15
2019-05-05T21:50:55.227Z,13.38
2019-05-05T21:53:27.043Z,12.98
2019-05-05T21:56:14.816Z,13.62
2019-05-05T21:58:46.775Z,12.35
2019-05-05T22:01:18.694Z,13.08
2019-05-05T22:06:39.701Z,12.85
2019-05-05T22:09:10.337Z,11.63
2019-05-05T22:11:40.767Z,12.50
2019-05-05T22:17:04.085Z,12.45
2019-05-05T22:19:36.410Z,12.47
2019-05-05T22:22:08.950Z,12.63
2019-05-05T22:24:39.773Z,12.45
2019-05-05T22:27:10.816Z,13.93
2019-05-05T22:29:44.544Z,12.95
2019-05-05T22:32:14.476Z,12.58
2019-05-05T22:34:45.381Z,12.43
2019-05-05T22:37:17.192Z,12.65
2019-05-05T22:39:47.677Z,12.35
2019-05-05T22:42:18.363Z,12.35
2019-05-05T22:44:49.012Z,12.45
2019-05-05T22:47:19.912Z,14.65
2019-05-05T22:49:50.638Z,12.58
2019-05-05T22:52:23.642Z,12.93
2019-05-05T22:54:53.566Z,12.45
2019-05-05T22:57:24.719Z,12.85
2019-05-05T22:59:55.575Z,12.60
2019-05-05T23:02:27.824Z,12.28
2019-05-05T23:05:04.762Z,12.30
2019-05-05T23:07:35.730Z,12.43
2019-05-05T23:10:07.880Z,11.63
2019-05-05T23:12:38.699Z,12.43
2019-05-05T23:15:10.431Z,11.95
2019-05-05T23:17:45.962Z,12.10
2019-05-05T23:23:14.570Z,13.45
2019-05-05T23:25:49.536Z,12.73
2019-05-05T23:28:20.301Z,13.80
2019-05-05T23:30:51.077Z,13.60
2019-05-05T23:33:21.813Z,13.25
2019-05-05T23:35:54.893Z,12.37
2019-05-05T23:38:24.880Z,12.90
2019-05-05T23:40:55.478Z,12.53
2019-05-05T23:43:26.262Z,12.45
2019-05-05T23:45:56.948Z,12.63
2019-05-05T23:48:27.668Z,13.48
2019-05-05T23:51:00.022Z,13.22
2019-05-05T23:53:30.590Z,13.58
2019-05-05T23:56:01.259Z,14.85
2019-05-05T23:58:32.051Z,14.63
